sensor_id;sensor_type;location;lat;lon;timestamp;temperature;humidity
19385;DHT22;9828;54.122;17.974;2024-01-10T00:04:18;0.10;99.90
19385;DHT22;9828;54.122;17.974;2024-01-10T00:09:40;0.10;1.00
19385;DHT22;9828;54.122;17.974;2024-01-10T00:15:04;0.20;1.00
19385;DHT22;9828;54.122;17.974;2024-01-10T00:20:25;0.20;1.00
19385;DHT22;9828;54.122;17.974;2024-01-10T00:25:47;0.20;1.00
19385;DHT22;9828;54.122;17.974;2024-01-10T00:31:08;0.10;1.00
19385;DHT22;9828;54.122;17.974;2024-01-10T00:36:30;0.10;99.90
19385;DHT22;9828;54.122;17.974;2024-01-10T00:41:51;0.10;99.90
19385;DHT22;9828;54.122;17.974;2024-01-10T00:47:13;0.20;99.90
19385;DHT22;9828;54.122;17.974;2024-01-10T00:52:35;0.20;99.90
19385;DHT22;9828;54.122;17.974;2024-01-10T00:57:56;0.20;99.90
19385;DHT22;9828;54.122;17.974;2024-01-10T01:03:18;0.20;99.90
19385;DHT22;9828;54.122;17.974;2024-01-10T01:08:39;0.30;99.90
19385;DHT22;9828;54.122;17.974;2024-01-10T01:14:01;0.40;99.90
19385;DHT22;9828;54.122;17.974;2024-01-10T01:19:22;0.40;92.60
19385;DHT22;9828;54.122;17.974;2024-01-10T01:24:44;0.40;54.90
19385;DHT22;9828;54.122;17.974;2024-01-10T01:30:06;0.40;99.90
19385;DHT22;9828;54.122;17.974;2024-01-10T01:35:27;0.40;99.90
19385;DHT22;9828;54.122;17.974;2024-01-10T01:40:48;0.40;97.40
19385;DHT22;9828;54.122;17.974;2024-01-10T01:46:10;0.40;99.90
19385;DHT22;9828;54.122;17.974;2024-01-10T01:51:32;0.40;16.00
19385;DHT22;9828;54.122;17.974;2024-01-10T01:56:54;0.40;1.00
19385;DHT22;9828;54.122;17.974;2024-01-10T02:02:16;0.40;99.90
19385;DHT22;9828;54.122;17.974;2024-01-10T02:07:39;0.50;99.90
19385;DHT22;9828;54.122;17.974;2024-01-10T02:13:01;0.60;1.00
19385;DHT22;9828;54.122;17.974;2024-01-10T02:18:22;0.50;1.00
19385;DHT22;9828;54.122;17.974;2024-01-10T02:23:44;0.50;1.00
19385;DHT22;9828;54.122;17.974;2024-01-10T02:29:05;0.50;1.00
19385;DHT22;9828;54.122;17.974;2024-01-10T02:34:27;0.50;1.00
19385;DHT22;9828;54.122;17.974;2024-01-10T02:39:48;0.50;99.90
19385;DHT22;9828;54.122;17.974;2024-01-10T02:45:09;0.50;99.90
19385;DHT22;9828;54.122;17.974;2024-01-10T02:50:30;0.50;99.90
19385;DHT22;9828;54.122;17.974;2024-01-10T02:55:52;0.50;99.90
19385;DHT22;9828;54.122;17.974;2024-01-10T03:01:14;0.50;99.90
19385;DHT22;9828;54.122;17.974;2024-01-10T03:06:37;0.60;99.90
19385;DHT22;9828;54.122;17.974;2024-01-10T03:11:59;0.60;1.00
19385;DHT22;9828;54.122;17.974;2024-01-10T03:17:20;0.60;99.90
19385;DHT22;9828;54.122;17.974;2024-01-10T03:22:41;0.50;99.90
19385;DHT22;9828;54.122;17.974;2024-01-10T03:28:02;0.50;99.90
19385;DHT22;9828;54.122;17.974;2024-01-10T03:33:24;0.60;60.20
19385;DHT22;9828;54.122;17.974;2024-01-10T03:38:45;0.60;1.00
19385;DHT22;9828;54.122;17.974;2024-01-10T03:44:06;0.60;1.00
19385;DHT22;9828;54.122;17.974;2024-01-10T03:49:28;0.50;1.00
19385;DHT22;9828;54.122;17.974;2024-01-10T03:54:49;0.50;1.00
19385;DHT22;9828;54.122;17.974;2024-01-10T04:00:10;0.50;1.00
19385;DHT22;9828;54.122;17.974;2024-01-10T04:05:33;0.40;1.00
19385;DHT22;9828;54.122;17.974;2024-01-10T04:10:55;0.50;1.00
19385;DHT22;9828;54.122;17.974;2024-01-10T04:16:16;0.50;93.90
19385;DHT22;9828;54.122;17.974;2024-01-10T04:21:37;0.50;92.70
19385;DHT22;9828;54.122;17.974;2024-01-10T04:26:59;0.50;1.00
19385;DHT22;9828;54.122;17.974;2024-01-10T04:32:20;0.60;1.00
19385;DHT22;9828;54.122;17.974;2024-01-10T04:37:41;0.50;1.00
19385;DHT22;9828;54.122;17.974;2024-01-10T04:43:03;0.50;1.00
19385;DHT22;9828;54.122;17.974;2024-01-10T04:48:24;0.60;99.90
19385;DHT22;9828;54.122;17.974;2024-01-10T04:53:45;0.50;1.00
19385;DHT22;9828;54.122;17.974;2024-01-10T04:59:07;0.50;99.90
19385;DHT22;9828;54.122;17.974;2024-01-10T05:04:28;0.50;1.00
19385;DHT22;9828;54.122;17.974;2024-01-10T05:09:49;0.60;99.90
19385;DHT22;9828;54.122;17.974;2024-01-10T05:15:10;0.60;1.00
19385;DHT22;9828;54.122;17.974;2024-01-10T05:20:32;0.60;99.90
19385;DHT22;9828;54.122;17.974;2024-01-10T05:25:54;0.50;1.00
19385;DHT22;9828;54.122;17.974;2024-01-10T05:31:16;0.50;99.90
19385;DHT22;9828;54.122;17.974;2024-01-10T05:36:37;0.50;99.90
19385;DHT22;9828;54.122;17.974;2024-01-10T05:41:58;0.50;1.00
19385;DHT22;9828;54.122;17.974;2024-01-10T05:47:19;0.50;1.00
19385;DHT22;9828;54.122;17.974;2024-01-10T05:52:42;0.50;51.60
19385;DHT22;9828;54.122;17.974;2024-01-10T05:58:04;0.40;1.00
19385;DHT22;9828;54.122;17.974;2024-01-10T06:03:26;0.50;99.90
19385;DHT22;9828;54.122;17.974;2024-01-10T06:08:47;0.60;99.90
19385;DHT22;9828;54.122;17.974;2024-01-10T06:14:08;0.50;99.90
19385;DHT22;9828;54.122;17.974;2024-01-10T06:19:30;0.50;1.00
19385;DHT22;9828;54.122;17.974;2024-01-10T06:24:54;0.60;99.90
19385;DHT22;9828;54.122;17.974;2024-01-10T06:30:15;0.70;99.90
19385;DHT22;9828;54.122;17.974;2024-01-10T06:35:37;0.70;1.00
19385;DHT22;9828;54.122;17.974;2024-01-10T06:41:00;0.70;1.00
19385;DHT22;9828;54.122;17.974;2024-01-10T06:46:22;0.60;1.00
19385;DHT22;9828;54.122;17.974;2024-01-10T06:51:45;0.50;99.90
19385;DHT22;9828;54.122;17.974;2024-01-10T06:57:07;0.60;1.00
19385;DHT22;9828;54.122;17.974;2024-01-10T07:02:30;0.60;99.90
19385;DHT22;9828;54.122;17.974;2024-01-10T07:07:53;0.60;1.00
19385;DHT22;9828;54.122;17.974;2024-01-10T07:13:14;0.60;99.90
19385;DHT22;9828;54.122;17.974;2024-01-10T07:18:36;0.50;1.00
19385;DHT22;9828;54.122;17.974;2024-01-10T07:23:57;0.50;1.00
19385;DHT22;9828;54.122;17.974;2024-01-10T07:29:18;0.50;1.00
19385;DHT22;9828;54.122;17.974;2024-01-10T07:34:40;0.50;99.90
19385;DHT22;9828;54.122;17.974;2024-01-10T07:40:02;0.50;99.90
19385;DHT22;9828;54.122;17.974;2024-01-10T07:45:24;0.50;1.00
19385;DHT22;9828;54.122;17.974;2024-01-10T07:50:46;0.60;1.00
19385;DHT22;9828;54.122;17.974;2024-01-10T07:56:07;0.60;38.60
19385;DHT22;9828;54.122;17.974;2024-01-10T08:01:28;0.60;99.90
19385;DHT22;9828;54.122;17.974;2024-01-10T08:06:49;0.70;62.40
19385;DHT22;9828;54.122;17.974;2024-01-10T08:12:11;0.70;1.00
19385;DHT22;9828;54.122;17.974;2024-01-10T08:17:33;0.80;99.90
19385;DHT22;9828;54.122;17.974;2024-01-10T08:22:54;0.80;1.00
19385;DHT22;9828;54.122;17.974;2024-01-10T08:28:15;0.70;13.20
19385;DHT22;9828;54.122;17.974;2024-01-10T08:33:37;0.80;1.00
19385;DHT22;9828;54.122;17.974;2024-01-10T08:38:58;0.80;28.80
19385;DHT22;9828;54.122;17.974;2024-01-10T08:44:20;0.90;1.00
19385;DHT22;9828;54.122;17.974;2024-01-10T08:49:42;0.90;1.00
19385;DHT22;9828;54.122;17.974;2024-01-10T08:55:07;0.90;99.90
19385;DHT22;9828;54.122;17.974;2024-01-10T09:00:30;1.10;1.00
19385;DHT22;9828;54.122;17.974;2024-01-10T09:05:52;1.00;1.00
19385;DHT22;9828;54.122;17.974;2024-01-10T09:11:17;1.10;99.90
19385;DHT22;9828;54.122;17.974;2024-01-10T09:16:38;1.10;99.90
19385;DHT22;9828;54.122;17.974;2024-01-10T09:21:59;1.20;1.00
19385;DHT22;9828;54.122;17.974;2024-01-10T09:27:21;1.20;1.00
19385;DHT22;9828;54.122;17.974;2024-01-10T09:32:44;1.30;1.00
19385;DHT22;9828;54.122;17.974;2024-01-10T09:38:06;1.30;1.00
19385;DHT22;9828;54.122;17.974;2024-01-10T09:43:29;1.30;1.00
19385;DHT22;9828;54.122;17.974;2024-01-10T09:48:51;1.30;1.00
19385;DHT22;9828;54.122;17.974;2024-01-10T09:54:15;1.30;99.90
19385;DHT22;9828;54.122;17.974;2024-01-10T09:59:42;1.30;99.90
19385;DHT22;9828;54.122;17.974;2024-01-10T10:05:14;1.20;1.00
19385;DHT22;9828;54.122;17.974;2024-01-10T10:10:39;1.20;1.00
19385;DHT22;9828;54.122;17.974;2024-01-10T10:16:04;1.20;99.90
19385;DHT22;9828;54.122;17.974;2024-01-10T10:21:26;1.20;99.90
19385;DHT22;9828;54.122;17.974;2024-01-10T10:26:48;1.20;1.00
19385;DHT22;9828;54.122;17.974;2024-01-10T10:32:09;1.10;1.00
19385;DHT22;9828;54.122;17.974;2024-01-10T10:37:31;1.20;1.00
19385;DHT22;9828;54.122;17.974;2024-01-10T10:42:55;1.30;99.90
19385;DHT22;9828;54.122;17.974;2024-01-10T10:48:20;1.30;1.00
19385;DHT22;9828;54.122;17.974;2024-01-10T10:53:43;1.30;99.90
19385;DHT22;9828;54.122;17.974;2024-01-10T10:59:08;1.30;99.90
19385;DHT22;9828;54.122;17.974;2024-01-10T11:04:31;1.30;68.10
19385;DHT22;9828;54.122;17.974;2024-01-10T11:09:54;1.30;1.00
19385;DHT22;9828;54.122;17.974;2024-01-10T11:27:12;1.20;1.00
19385;DHT22;9828;54.122;17.974;2024-01-10T11:32:34;1.20;99.90
19385;DHT22;9828;54.122;17.974;2024-01-10T12:02:55;1.20;99.90
19385;DHT22;9828;54.122;17.974;2024-01-10T12:08:16;1.20;1.00
19385;DHT22;9828;54.122;17.974;2024-01-10T12:13:42;1.30;1.00
19385;DHT22;9828;54.122;17.974;2024-01-10T12:19:04;1.30;1.00
19385;DHT22;9828;54.122;17.974;2024-01-10T12:24:30;1.30;1.00
19385;DHT22;9828;54.122;17.974;2024-01-10T12:29:52;1.20;1.00
19385;DHT22;9828;54.122;17.974;2024-01-10T12:35:13;1.20;1.00
19385;DHT22;9828;54.122;17.974;2024-01-10T12:40:35;1.20;1.00
19385;DHT22;9828;54.122;17.974;2024-01-10T12:46:12;1.20;1.00
19385;DHT22;9828;54.122;17.974;2024-01-10T12:51:35;1.20;1.00
19385;DHT22;9828;54.122;17.974;2024-01-10T12:56:59;1.30;99.90
19385;DHT22;9828;54.122;17.974;2024-01-10T13:02:20;1.20;99.90
19385;DHT22;9828;54.122;17.974;2024-01-10T13:07:42;1.20;99.90
19385;DHT22;9828;54.122;17.974;2024-01-10T13:13:04;1.10;1.00
19385;DHT22;9828;54.122;17.974;2024-01-10T13:18:25;1.10;1.00
19385;DHT22;9828;54.122;17.974;2024-01-10T13:23:49;1.20;1.00
19385;DHT22;9828;54.122;17.974;2024-01-10T13:29:12;1.20;1.00
19385;DHT22;9828;54.122;17.974;2024-01-10T13:34:35;1.20;1.00
19385;DHT22;9828;54.122;17.974;2024-01-10T13:39:56;1.10;1.00
19385;DHT22;9828;54.122;17.974;2024-01-10T13:45:17;1.10;1.00
19385;DHT22;9828;54.122;17.974;2024-01-10T13:50:39;1.10;99.90
19385;DHT22;9828;54.122;17.974;2024-01-10T13:56:00;1.20;99.10
19385;DHT22;9828;54.122;17.974;2024-01-10T14:01:22;1.10;99.90
19385;DHT22;9828;54.122;17.974;2024-01-10T14:06:43;1.00;10.70
19385;DHT22;9828;54.122;17.974;2024-01-10T14:12:05;1.10;1.00
19385;DHT22;9828;54.122;17.974;2024-01-10T14:17:26;1.00;1.00
19385;DHT22;9828;54.122;17.974;2024-01-10T14:22:48;1.00;1.00
19385;DHT22;9828;54.122;17.974;2024-01-10T14:28:11;1.10;99.90
19385;DHT22;9828;54.122;17.974;2024-01-10T14:33:32;1.00;1.00
19385;DHT22;9828;54.122;17.974;2024-01-10T14:38:57;1.00;1.00
19385;DHT22;9828;54.122;17.974;2024-01-10T14:44:18;1.00;1.00
19385;DHT22;9828;54.122;17.974;2024-01-10T14:49:40;1.00;55.60
19385;DHT22;9828;54.122;17.974;2024-01-10T14:55:02;1.00;1.00
19385;DHT22;9828;54.122;17.974;2024-01-10T15:00:26;0.90;55.00
19385;DHT22;9828;54.122;17.974;2024-01-10T15:05:47;0.80;99.90
19385;DHT22;9828;54.122;17.974;2024-01-10T15:11:09;0.80;1.00
19385;DHT22;9828;54.122;17.974;2024-01-10T15:16:32;0.80;1.00
19385;DHT22;9828;54.122;17.974;2024-01-10T15:21:53;0.80;1.00
19385;DHT22;9828;54.122;17.974;2024-01-10T15:27:15;0.90;1.00
19385;DHT22;9828;54.122;17.974;2024-01-10T15:32:36;0.90;99.90
19385;DHT22;9828;54.122;17.974;2024-01-10T15:37:58;0.90;1.00
19385;DHT22;9828;54.122;17.974;2024-01-10T15:43:19;0.90;99.90
19385;DHT22;9828;54.122;17.974;2024-01-10T15:48:40;0.80;99.90
19385;DHT22;9828;54.122;17.974;2024-01-10T15:54:01;0.80;99.90
19385;DHT22;9828;54.122;17.974;2024-01-10T15:59:23;0.80;1.00
19385;DHT22;9828;54.122;17.974;2024-01-10T16:04:44;0.80;1.00
19385;DHT22;9828;54.122;17.974;2024-01-10T16:10:07;0.80;99.90
19385;DHT22;9828;54.122;17.974;2024-01-10T16:15:29;0.80;99.90
19385;DHT22;9828;54.122;17.974;2024-01-10T16:20:51;0.80;1.00
19385;DHT22;9828;54.122;17.974;2024-01-10T16:26:12;0.80;1.00
19385;DHT22;9828;54.122;17.974;2024-01-10T16:31:34;0.80;1.00
19385;DHT22;9828;54.122;17.974;2024-01-10T16:36:55;0.70;99.90
19385;DHT22;9828;54.122;17.974;2024-01-10T16:42:17;0.70;99.90
19385;DHT22;9828;54.122;17.974;2024-01-10T16:47:38;0.70;1.00
19385;DHT22;9828;54.122;17.974;2024-01-10T16:52:59;0.70;99.90
19385;DHT22;9828;54.122;17.974;2024-01-10T16:58:21;0.70;1.00
19385;DHT22;9828;54.122;17.974;2024-01-10T17:03:43;0.80;1.00
19385;DHT22;9828;54.122;17.974;2024-01-10T17:09:04;0.80;1.00
19385;DHT22;9828;54.122;17.974;2024-01-10T17:14:26;0.90;99.90
19385;DHT22;9828;54.122;17.974;2024-01-10T17:19:47;0.90;1.00
19385;DHT22;9828;54.122;17.974;2024-01-10T17:25:09;0.80;1.00
19385;DHT22;9828;54.122;17.974;2024-01-10T17:30:30;0.80;1.00
19385;DHT22;9828;54.122;17.974;2024-01-10T17:35:53;0.80;99.90
19385;DHT22;9828;54.122;17.974;2024-01-10T17:41:18;0.70;1.00
19385;DHT22;9828;54.122;17.974;2024-01-10T17:46:39;0.70;99.90
19385;DHT22;9828;54.122;17.974;2024-01-10T17:52:00;0.70;1.00
19385;DHT22;9828;54.122;17.974;2024-01-10T17:57:22;0.70;1.00
19385;DHT22;9828;54.122;17.974;2024-01-10T18:02:47;0.70;99.90
19385;DHT22;9828;54.122;17.974;2024-01-10T18:08:08;0.70;1.00
19385;DHT22;9828;54.122;17.974;2024-01-10T18:13:30;0.70;20.00
19385;DHT22;9828;54.122;17.974;2024-01-10T18:18:51;0.80;99.90
19385;DHT22;9828;54.122;17.974;2024-01-10T18:24:13;0.70;1.00
19385;DHT22;9828;54.122;17.974;2024-01-10T18:29:35;0.70;99.90
19385;DHT22;9828;54.122;17.974;2024-01-10T18:34:56;0.60;1.00
19385;DHT22;9828;54.122;17.974;2024-01-10T18:40:17;0.60;99.90
19385;DHT22;9828;54.122;17.974;2024-01-10T18:45:39;0.70;1.00
19385;DHT22;9828;54.122;17.974;2024-01-10T18:51:01;0.70;99.90
19385;DHT22;9828;54.122;17.974;2024-01-10T18:56:22;0.60;99.90
19385;DHT22;9828;54.122;17.974;2024-01-10T19:01:43;0.60;1.00
19385;DHT22;9828;54.122;17.974;2024-01-10T19:07:08;0.60;1.00
19385;DHT22;9828;54.122;17.974;2024-01-10T19:12:29;0.60;1.00
19385;DHT22;9828;54.122;17.974;2024-01-10T19:17:51;0.70;1.00
19385;DHT22;9828;54.122;17.974;2024-01-10T19:23:12;0.70;99.90
19385;DHT22;9828;54.122;17.974;2024-01-10T19:28:33;0.60;1.00
19385;DHT22;9828;54.122;17.974;2024-01-10T19:33:56;0.80;1.00
19385;DHT22;9828;54.122;17.974;2024-01-10T19:39:18;0.70;1.00
19385;DHT22;9828;54.122;17.974;2024-01-10T19:44:40;0.80;1.00
19385;DHT22;9828;54.122;17.974;2024-01-10T19:50:01;0.70;1.00
19385;DHT22;9828;54.122;17.974;2024-01-10T19:55:24;0.80;1.00
19385;DHT22;9828;54.122;17.974;2024-01-10T20:00:45;0.80;1.00
19385;DHT22;9828;54.122;17.974;2024-01-10T20:06:08;0.70;1.00
19385;DHT22;9828;54.122;17.974;2024-01-10T20:11:29;0.80;1.00
19385;DHT22;9828;54.122;17.974;2024-01-10T20:16:51;0.80;1.00
19385;DHT22;9828;54.122;17.974;2024-01-10T20:22:12;0.70;1.00
19385;DHT22;9828;54.122;17.974;2024-01-10T20:27:34;0.80;1.00
19385;DHT22;9828;54.122;17.974;2024-01-10T20:32:55;0.80;77.10
19385;DHT22;9828;54.122;17.974;2024-01-10T20:38:18;0.80;1.00
19385;DHT22;9828;54.122;17.974;2024-01-10T20:43:40;0.80;1.00
19385;DHT22;9828;54.122;17.974;2024-01-10T20:49:01;0.90;59.70
19385;DHT22;9828;54.122;17.974;2024-01-10T20:54:22;0.90;1.00
19385;DHT22;9828;54.122;17.974;2024-01-10T20:59:47;0.80;1.00
19385;DHT22;9828;54.122;17.974;2024-01-10T21:05:09;0.80;20.70
19385;DHT22;9828;54.122;17.974;2024-01-10T21:10:31;0.90;99.90
19385;DHT22;9828;54.122;17.974;2024-01-10T21:15:52;0.90;99.90
19385;DHT22;9828;54.122;17.974;2024-01-10T21:21:14;0.90;99.90
19385;DHT22;9828;54.122;17.974;2024-01-10T21:26:35;0.90;1.00
19385;DHT22;9828;54.122;17.974;2024-01-10T21:31:57;0.90;1.00
19385;DHT22;9828;54.122;17.974;2024-01-10T21:37:18;1.00;99.90
19385;DHT22;9828;54.122;17.974;2024-01-10T21:42:40;0.90;1.00
19385;DHT22;9828;54.122;17.974;2024-01-10T21:48:01;0.90;99.90
19385;DHT22;9828;54.122;17.974;2024-01-10T21:53:23;1.00;1.00
19385;DHT22;9828;54.122;17.974;2024-01-10T21:58:44;0.90;1.00
19385;DHT22;9828;54.122;17.974;2024-01-10T22:04:05;1.00;1.00
19385;DHT22;9828;54.122;17.974;2024-01-10T22:09:26;1.00;1.00
19385;DHT22;9828;54.122;17.974;2024-01-10T22:14:48;1.00;1.00
19385;DHT22;9828;54.122;17.974;2024-01-10T22:20:09;1.10;1.00
19385;DHT22;9828;54.122;17.974;2024-01-10T22:25:32;1.20;99.90
19385;DHT22;9828;54.122;17.974;2024-01-10T22:30:54;1.20;99.90
19385;DHT22;9828;54.122;17.974;2024-01-10T22:36:15;1.20;1.00
19385;DHT22;9828;54.122;17.974;2024-01-10T22:41:37;1.20;99.90
19385;DHT22;9828;54.122;17.974;2024-01-10T22:46:58;1.10;1.00
19385;DHT22;9828;54.122;17.974;2024-01-10T22:52:20;1.20;1.00
19385;DHT22;9828;54.122;17.974;2024-01-10T22:57:42;1.10;1.00
19385;DHT22;9828;54.122;17.974;2024-01-10T23:03:06;1.10;1.00
19385;DHT22;9828;54.122;17.974;2024-01-10T23:08:28;1.20;1.00
19385;DHT22;9828;54.122;17.974;2024-01-10T23:13:50;1.10;1.00
19385;DHT22;9828;54.122;17.974;2024-01-10T23:19:11;1.10;1.00
19385;DHT22;9828;54.122;17.974;2024-01-10T23:24:33;1.10;1.00
19385;DHT22;9828;54.122;17.974;2024-01-10T23:29:54;1.10;1.00
19385;DHT22;9828;54.122;17.974;2024-01-10T23:35:18;1.20;1.00
19385;DHT22;9828;54.122;17.974;2024-01-10T23:40:42;1.20;1.00
19385;DHT22;9828;54.122;17.974;2024-01-10T23:46:03;1.20;1.00
19385;DHT22;9828;54.122;17.974;2024-01-10T23:51:25;1.20;1.00
19385;DHT22;9828;54.122;17.974;2024-01-10T23:56:46;1.30;1.00
